Time;durP1;ratioP1;P1;durP2;ratioP2;P2;SDS_P1;SDS_P2;PMS_P1;PMS_P2;Temp;Humidity;BMP_temperature;BMP_pressure;BME280_temperature;BME280_humidity;BME280_pressure;Samples;Min_cycle;Max_cycle;Signal;HPM_P1;HPM_P2
2021/01/08 00:00:49;;;;;;;17.97;10.53;;;6.00;95.60;;;;;;4952429;29;20175;-77
2021/01/08 00:03:15;;;;;;;21.17;11.47;;;6.00;95.60;;;;;;4952245;29;20571;-77
2021/01/08 00:05:40;;;;;;;16.13;9.67;;;6.00;95.70;;;;;;4952295;29;20183;-77
2021/01/08 00:08:06;;;;;;;11.83;8.13;;;6.00;95.80;;;;;;4952379;29;20189;-77
2021/01/08 00:10:32;;;;;;;14.47;9.23;;;6.00;95.90;;;;;;4964094;28;20186;-77
2021/01/08 00:12:58;;;;;;;12.97;9.03;;;6.00;95.70;;;;;;4952473;29;20722;-77
2021/01/08 00:15:24;;;;;;;12.80;8.07;;;6.00;95.80;;;;;;4952743;29;20167;-78
2021/01/08 00:17:49;;;;;;;15.63;8.73;;;6.00;95.90;;;;;;4952443;29;20179;-78
2021/01/08 00:20:16;;;;;;;12.00;8.23;;;5.90;95.70;;;;;;4935504;29;20542;-78
2021/01/08 00:22:42;;;;;;;19.00;8.40;;;5.90;95.70;;;;;;4952389;29;20258;-78
2021/01/08 00:25:08;;;;;;;15.40;8.63;;;5.90;95.80;;;;;;4950419;29;20271;-78
2021/01/08 00:27:34;;;;;;;12.33;7.67;;;5.90;95.90;;;;;;4951927;29;20190;-78
2021/01/08 00:29:59;;;;;;;11.57;7.27;;;5.90;95.80;;;;;;4952734;28;20175;-78
2021/01/08 00:32:25;;;;;;;15.97;7.57;;;5.90;95.90;;;;;;4955556;28;20176;-78
2021/01/08 00:34:51;;;;;;;11.80;6.47;;;5.90;95.90;;;;;;4946663;28;21058;-78
2021/01/08 00:37:18;;;;;;;13.40;7.33;;;5.90;96.20;;;;;;4933752;28;20240;-78
2021/01/08 00:39:44;;;;;;;11.70;7.63;;;5.90;96.00;;;;;;4971404;28;20670;-78
2021/01/08 00:42:10;;;;;;;14.93;8.20;;;5.90;96.00;;;;;;4957154;28;20179;-78
2021/01/08 00:44:36;;;;;;;10.83;8.00;;;5.90;96.00;;;;;;4947911;29;20183;-78
2021/01/08 00:47:01;;;;;;;12.87;8.57;;;5.90;95.90;;;;;;4951567;29;20281;-78
2021/01/08 00:49:27;;;;;;;16.23;7.83;;;5.90;96.00;;;;;;4951671;29;20186;-78
2021/01/08 00:51:53;;;;;;;12.47;8.73;;;5.90;96.00;;;;;;4934174;29;20330;-78
2021/01/08 00:54:19;;;;;;;13.37;7.13;;;5.90;96.00;;;;;;4950663;29;20704;-79
2021/01/08 00:56:46;;;;;;;10.00;7.23;;;5.90;95.90;;;;;;4938427;29;20189;-78
2021/01/08 00:59:12;;;;;;;11.03;7.10;;;5.90;95.90;;;;;;4952058;29;20882;-78
2021/01/08 01:01:38;;;;;;;9.87;7.23;;;6.00;95.90;;;;;;4960636;28;20181;-79
2021/01/08 01:04:03;;;;;;;10.90;6.53;;;6.00;95.90;;;;;;4956492;28;20910;-78
2021/01/08 01:06:33;;;;;;;11.70;7.53;;;6.00;95.80;;;;;;4951551;28;20191;-79
2021/01/08 01:08:59;;;;;;;9.73;7.00;;;6.00;95.80;;;;;;4934227;29;20194;-79
2021/01/08 01:11:26;;;;;;;10.13;5.87;;;6.00;95.80;;;;;;4951938;29;20557;-79
2021/01/08 01:13:55;;;;;;;7.33;5.83;;;5.90;95.70;;;;;;4951254;29;20218;-79
2021/01/08 01:16:23;;;;;;;7.47;5.17;;;5.90;95.60;;;;;;4949988;29;20664;-79
2021/01/08 01:18:52;;;;;;;11.67;6.90;;;5.90;95.80;;;;;;4951107;29;20215;-79
2021/01/08 01:21:18;;;;;;;10.90;6.57;;;5.90;95.80;;;;;;4933229;29;20175;-79
2021/01/08 01:23:44;;;;;;;9.13;5.63;;;5.90;95.80;;;;;;4933586;29;20294;-78
2021/01/08 01:26:10;;;;;;;13.73;5.93;;;5.90;95.90;;;;;;4935909;29;20646;-78
2021/01/08 01:28:37;;;;;;;8.43;5.97;;;5.90;95.90;;;;;;4938459;28;20238;-78
2021/01/08 01:31:04;;;;;;;7.43;4.93;;;5.90;95.90;;;;;;4953721;28;20191;-78
2021/01/08 01:33:30;;;;;;;8.00;6.57;;;5.90;95.70;;;;;;4951990;29;20261;-78
2021/01/08 01:35:58;;;;;;;6.27;5.63;;;5.90;95.70;;;;;;4934308;29;20694;-78
2021/01/08 01:38:24;;;;;;;9.60;6.50;;;5.90;96.00;;;;;;4950748;29;20278;-78
2021/01/08 01:40:50;;;;;;;6.27;5.43;;;5.90;95.90;;;;;;4949805;29;20198;-78
2021/01/08 01:43:16;;;;;;;7.40;5.53;;;5.90;96.00;;;;;;4951131;29;20183;-79
2021/01/08 01:45:43;;;;;;;7.17;5.87;;;5.90;96.20;;;;;;4950420;29;20187;-79
2021/01/08 01:48:14;;;;;;;6.47;4.90;;;5.90;96.20;;;;;;4933439;29;20549;-78
2021/01/08 01:50:40;;;;;;;6.77;5.67;;;5.90;96.20;;;;;;4950720;29;20187;-78
2021/01/08 01:53:06;;;;;;;8.53;4.93;;;5.90;96.30;;;;;;4950485;29;20202;-78
2021/01/08 01:55:32;;;;;;;9.93;6.13;;;5.90;96.30;;;;;;4933832;29;20187;-78
2021/01/08 01:58:00;;;;;;;11.23;6.27;;;5.90;96.30;;;;;;4933573;29;20828;-78
2021/01/08 02:00:26;;;;;;;8.33;5.90;;;5.90;96.30;;;;;;4951083;29;20237;-78
2021/01/08 02:02:55;;;;;;;6.50;5.27;;;5.90;96.20;;;;;;4933404;29;20281;-78
2021/01/08 02:05:22;;;;;;;10.73;4.70;;;5.90;96.30;;;;;;4940347;29;20187;-78
2021/01/08 02:07:54;;;;;;;5.10;3.43;;;5.90;96.40;;;;;;4949967;29;20213;-78
2021/01/08 02:10:22;;;;;;;6.37;4.63;;;5.90;96.40;;;;;;4950946;29;20262;-78
2021/01/08 02:12:48;;;;;;;6.70;3.67;;;5.90;96.40;;;;;;4949396;29;20266;-78
2021/01/08 02:15:15;;;;;;;9.33;4.60;;;5.90;96.40;;;;;;4950840;29;20672;-78
2021/01/08 02:17:42;;;;;;;6.60;4.00;;;5.90;96.30;;;;;;4956176;28;20183;-78
2021/01/08 02:20:09;;;;;;;4.90;4.33;;;5.80;96.30;;;;;;4955146;28;20210;-78
2021/01/08 02:22:45;;;;;;;5.73;4.07;;;5.80;96.40;;;;;;4954948;29;20183;-78
2021/01/08 02:25:19;;;;;;;8.70;5.00;;;5.80;96.50;;;;;;4948920;29;20246;-78
2021/01/08 02:28:05;;;;;;;6.00;4.23;;;5.80;96.40;;;;;;4949626;29;20229;-78
2021/01/08 02:30:32;;;;;;;4.83;3.90;;;5.80;96.30;;;;;;4879037;29;20221;-78
2021/01/08 02:32:58;;;;;;;4.27;3.87;;;5.80;96.20;;;;;;4894176;29;20368;-78
2021/01/08 02:35:24;;;;;;;4.10;3.10;;;5.80;96.30;;;;;;4894855;29;20272;-77
2021/01/08 02:37:51;;;;;;;4.30;3.73;;;5.80;96.30;;;;;;4896082;29;20228;-78
2021/01/08 02:40:18;;;;;;;6.73;4.30;;;5.80;96.40;;;;;;4895953;29;20225;-77
2021/01/08 02:42:49;;;;;;;5.27;4.23;;;5.80;96.50;;;;;;4894728;29;20752;-78
2021/01/08 02:45:15;;;;;;;5.67;3.20;;;5.80;96.50;;;;;;4906831;29;20181;-77
2021/01/08 02:47:40;;;;;;;5.90;4.07;;;5.80;96.60;;;;;;4895306;29;20279;-78
2021/01/08 02:50:07;;;;;;;4.47;4.07;;;5.80;96.50;;;;;;4894385;29;20193;-78
2021/01/08 02:52:40;;;;;;;4.93;4.53;;;5.80;96.50;;;;;;4893990;29;20621;-77
2021/01/08 02:55:08;;;;;;;4.47;4.07;;;5.80;96.20;;;;;;4894316;29;20189;-77
2021/01/08 02:57:34;;;;;;;6.13;4.83;;;5.80;96.20;;;;;;4894356;29;20227;-77
2021/01/08 03:00:03;;;;;;;5.67;4.10;;;5.90;96.30;;;;;;4878235;29;20240;-77
2021/01/08 03:02:29;;;;;;;4.67;4.23;;;5.90;96.30;;;;;;4893604;29;20186;-77
2021/01/08 03:04:55;;;;;;;7.63;4.40;;;5.90;96.40;;;;;;4892105;29;20625;-77
2021/01/08 03:07:25;;;;;;;4.87;4.37;;;5.90;96.50;;;;;;4917835;29;20191;-78
2021/01/08 03:09:51;;;;;;;5.90;4.17;;;5.90;96.40;;;;;;4943822;29;20574;-77
2021/01/08 03:12:17;;;;;;;5.30;4.30;;;5.90;96.30;;;;;;4935682;29;20183;-77
2021/01/08 03:14:47;;;;;;;3.73;3.40;;;5.90;96.30;;;;;;4952263;29;20384;-77
2021/01/08 03:17:14;;;;;;;5.07;4.03;;;5.90;96.30;;;;;;4935817;29;20190;-77
2021/01/08 03:19:40;;;;;;;4.87;3.37;;;5.90;96.30;;;;;;4935993;29;20186;-77
2021/01/08 03:22:06;;;;;;;5.37;3.90;;;5.90;96.30;;;;;;4953353;29;20185;-76
2021/01/08 03:24:32;;;;;;;8.03;3.50;;;5.90;96.00;;;;;;4941464;29;20219;-77
2021/01/08 03:26:58;;;;;;;4.70;3.77;;;5.90;96.40;;;;;;4940897;29;20619;-77
2021/01/08 03:29:24;;;;;;;4.27;3.73;;;5.90;96.30;;;;;;4967905;28;20257;-77
2021/01/08 03:31:50;;;;;;;3.37;3.13;;;5.90;96.40;;;;;;4942810;29;20274;-77
2021/01/08 03:34:16;;;;;;;5.53;3.23;;;5.80;96.50;;;;;;4953170;29;20743;-77
2021/01/08 03:36:42;;;;;;;5.63;3.67;;;5.90;96.50;;;;;;4948299;28;20900;-77
2021/01/08 03:39:07;;;;;;;4.50;4.10;;;5.80;96.50;;;;;;4953496;29;20171;-77
2021/01/08 03:41:33;;;;;;;4.30;3.83;;;5.90;96.40;;;;;;4952814;29;20206;-77
2021/01/08 03:43:59;;;;;;;5.43;4.27;;;5.90;96.40;;;;;;4935543;29;20194;-77
2021/01/08 03:46:25;;;;;;;3.60;3.20;;;5.90;96.30;;;;;;4952348;29;20571;-77
2021/01/08 03:48:50;;;;;;;5.07;3.83;;;5.90;96.40;;;;;;4952835;28;20273;-77
2021/01/08 03:51:16;;;;;;;4.90;3.90;;;5.90;96.40;;;;;;4958397;28;20715;-77
2021/01/08 03:53:42;;;;;;;6.67;4.60;;;5.90;96.40;;;;;;4955135;28;20218;-77
2021/01/08 03:56:08;;;;;;;9.13;4.47;;;5.90;96.50;;;;;;4935127;29;20183;-76
2021/01/08 03:58:34;;;;;;;5.87;4.43;;;5.90;96.50;;;;;;4935058;29;20325;-77
2021/01/08 04:01:00;;;;;;;6.27;4.60;;;5.90;96.50;;;;;;4935180;29;20179;-77
2021/01/08 04:03:25;;;;;;;7.40;5.00;;;6.00;96.60;;;;;;4934371;29;20222;-77
2021/01/08 04:05:51;;;;;;;5.37;4.23;;;6.00;96.60;;;;;;4935832;29;20190;-76
2021/01/08 04:08:16;;;;;;;8.97;5.80;;;6.00;96.60;;;;;;4935263;29;20265;-77
2021/01/08 04:10:42;;;;;;;6.20;4.97;;;6.00;96.70;;;;;;4953302;29;20191;-77
2021/01/08 04:13:08;;;;;;;11.33;7.10;;;5.90;96.80;;;;;;4952116;29;20273;-77
2021/01/08 04:15:33;;;;;;;7.87;5.97;;;5.90;96.60;;;;;;4952033;29;20214;-77
2021/01/08 04:17:59;;;;;;;11.57;7.03;;;5.90;96.70;;;;;;4950106;29;20183;-77
2021/01/08 04:20:25;;;;;;;10.93;6.87;;;5.90;96.70;;;;;;4951632;29;20190;-77
2021/01/08 04:22:50;;;;;;;13.97;7.77;;;6.00;96.70;;;;;;4933748;29;20194;-76
2021/01/08 04:25:16;;;;;;;11.37;7.60;;;6.00;96.70;;;;;;4951166;28;20199;-77
2021/01/08 04:27:42;;;;;;;11.20;8.00;;;6.00;96.70;;;;;;4942268;29;20664;-76
2021/01/08 04:30:10;;;;;;;11.30;7.63;;;6.00;96.70;;;;;;4947966;29;20184;-76
2021/01/08 04:32:35;;;;;;;14.87;8.40;;;6.00;96.60;;;;;;4939411;29;20187;-76
2021/01/08 04:35:01;;;;;;;13.33;8.47;;;6.10;96.60;;;;;;4950447;29;20183;-76
2021/01/08 04:37:27;;;;;;;12.13;8.17;;;6.10;96.50;;;;;;4952451;28;20687;-77
2021/01/08 04:39:53;;;;;;;11.53;7.30;;;6.10;96.50;;;;;;4951265;28;20179;-77
2021/01/08 04:42:19;;;;;;;14.30;8.13;;;6.10;96.50;;;;;;4951266;29;20194;-76
2021/01/08 04:44:45;;;;;;;11.43;7.87;;;6.10;96.50;;;;;;4951442;29;20706;-76
2021/01/08 04:47:13;;;;;;;12.30;7.73;;;6.10;96.50;;;;;;4947688;28;20220;-76
2021/01/08 04:49:38;;;;;;;11.67;7.67;;;6.10;96.40;;;;;;4938846;29;20916;-77
2021/01/08 04:52:09;;;;;;;8.60;6.80;;;6.10;96.40;;;;;;4955269;28;20198;-76
2021/01/08 04:54:36;;;;;;;9.03;7.17;;;6.10;96.40;;;;;;4938979;29;20707;-77
2021/01/08 04:57:04;;;;;;;8.77;7.63;;;6.10;96.40;;;;;;4932843;29;20207;-77
2021/01/08 04:59:30;;;;;;;12.73;7.07;;;6.10;96.30;;;;;;4933307;29;20172;-77
2021/01/08 05:01:57;;;;;;;9.40;7.07;;;6.10;96.30;;;;;;4933087;29;20175;-77
2021/01/08 05:04:23;;;;;;;11.30;7.80;;;6.10;96.40;;;;;;4932541;29;20238;-77
2021/01/08 05:06:48;;;;;;;7.23;6.53;;;6.10;96.40;;;;;;4932154;29;20731;-77
2021/01/08 05:09:14;;;;;;;15.87;7.57;;;6.10;96.50;;;;;;4914848;29;20175;-77
2021/01/08 05:11:40;;;;;;;13.73;7.77;;;6.00;96.60;;;;;;4936139;29;20186;-77
2021/01/08 05:14:09;;;;;;;9.03;7.03;;;6.00;96.70;;;;;;4951119;29;20207;-76
2021/01/08 05:16:37;;;;;;;9.90;7.77;;;6.00;96.60;;;;;;4959079;28;20189;-77
2021/01/08 05:19:04;;;;;;;11.03;7.87;;;6.00;96.60;;;;;;4952493;28;20194;-78
2021/01/08 05:21:31;;;;;;;10.80;7.63;;;6.00;96.80;;;;;;4943697;29;20191;-78
2021/01/08 05:24:02;;;;;;;10.63;6.97;;;5.90;96.70;;;;;;4947286;29;20179;-77
2021/01/08 05:26:28;;;;;;;14.77;8.37;;;5.90;97.00;;;;;;4942811;29;20211;-78
2021/01/08 05:28:58;;;;;;;9.73;7.17;;;5.90;96.90;;;;;;4950962;29;20321;-78
2021/01/08 05:31:28;;;;;;;11.07;7.27;;;5.90;97.00;;;;;;4928538;29;20187;-78
2021/01/08 05:33:54;;;;;;;9.27;6.80;;;5.90;97.00;;;;;;4933043;29;20278;-79
2021/01/08 05:36:21;;;;;;;10.70;6.67;;;5.90;97.00;;;;;;4950320;29;20179;-78
2021/01/08 05:38:52;;;;;;;9.57;7.07;;;5.90;97.00;;;;;;4950720;29;20183;-78
2021/01/08 05:41:19;;;;;;;10.83;6.70;;;6.00;96.90;;;;;;4933545;29;20182;-78
2021/01/08 05:43:46;;;;;;;9.37;6.77;;;6.00;96.70;;;;;;4950964;29;20187;-77
2021/01/08 05:46:17;;;;;;;11.03;6.50;;;6.00;96.80;;;;;;4951199;29;20648;-78
2021/01/08 05:48:50;;;;;;;7.27;6.57;;;5.90;96.80;;;;;;4962538;28;20629;-78
2021/01/08 05:51:20;;;;;;;7.63;6.53;;;5.90;96.70;;;;;;4955911;28;20628;-78
2021/01/08 05:53:48;;;;;;;8.23;6.33;;;6.00;96.80;;;;;;4945692;29;20206;-78
2021/01/08 05:56:18;;;;;;;6.63;5.73;;;6.00;96.70;;;;;;4956230;28;20196;-78
2021/01/08 05:58:45;;;;;;;11.67;6.17;;;6.00;96.60;;;;;;4949914;29;20195;-78
2021/01/08 06:01:12;;;;;;;7.50;6.43;;;6.00;96.70;;;;;;4951645;28;20190;-78
2021/01/08 06:03:40;;;;;;;7.60;6.17;;;6.00;96.70;;;;;;4963358;28;20190;-77
2021/01/08 06:06:07;;;;;;;5.57;5.13;;;6.00;96.70;;;;;;4962212;28;20531;-77
2021/01/08 06:08:43;;;;;;;5.53;5.03;;;6.00;96.50;;;;;;4949430;29;20201;-76
2021/01/08 06:11:24;;;;;;;6.57;5.50;;;6.00;96.30;;;;;;4949655;28;20189;-77
2021/01/08 06:13:56;;;;;;;6.47;5.27;;;6.00;96.50;;;;;;4948287;29;20226;-77
2021/01/08 06:16:23;;;;;;;5.97;5.30;;;6.00;96.70;;;;;;4940307;28;20186;-77
2021/01/08 06:18:50;;;;;;;8.90;5.73;;;6.00;96.70;;;;;;4939611;28;20203;-76
2021/01/08 06:21:17;;;;;;;7.60;5.60;;;6.00;96.50;;;;;;4949131;28;20187;-77
2021/01/08 06:23:45;;;;;;;6.37;5.73;;;6.00;96.60;;;;;;4946624;28;20191;-79
2021/01/08 06:26:15;;;;;;;8.57;6.13;;;6.00;96.50;;;;;;4948814;29;20636;-77
2021/01/08 06:28:43;;;;;;;6.60;5.93;;;6.00;96.40;;;;;;4955447;28;20278;-78
2021/01/08 06:31:40;;;;;;;7.93;5.97;;;6.00;96.50;;;;;;4934873;29;20732;-89
2021/01/08 06:34:06;;;;;;;5.67;5.10;;;6.00;96.30;;;;;;4881510;29;20292;-88
2021/01/08 06:36:33;;;;;;;8.07;6.17;;;6.10;96.50;;;;;;4880379;29;20186;-89
2021/01/08 06:39:11;;;;;;;7.97;6.10;;;6.00;96.50;;;;;;4892942;29;20252;-90
2021/01/08 06:41:39;;;;;;;9.77;6.30;;;6.00;96.30;;;;;;4902857;29;20269;-89
2021/01/08 06:44:06;;;;;;;9.03;6.10;;;6.00;96.40;;;;;;4910739;29;20225;-88
2021/01/08 06:46:39;;;;;;;10.33;7.03;;;6.10;96.60;;;;;;4912995;29;20193;-89
2021/01/08 06:49:10;;;;;;;14.80;7.03;;;6.10;96.60;;;;;;4912609;29;20206;-89
2021/01/08 06:51:40;;;;;;;10.77;7.13;;;6.10;96.60;;;;;;4896396;29;20192;-88
2021/01/08 06:54:11;;;;;;;8.43;6.40;;;6.10;96.50;;;;;;4906870;29;20287;-88
2021/01/08 06:56:43;;;;;;;9.73;6.60;;;6.10;96.40;;;;;;4874595;29;20182;-88
2021/01/08 06:59:16;;;;;;;9.53;6.27;;;6.10;96.40;;;;;;4895183;29;20189;-89
2021/01/08 07:01:53;;;;;;;8.97;6.90;;;6.10;96.50;;;;;;4896649;29;20181;-88
2021/01/08 07:04:32;;;;;;;8.03;5.17;;;6.10;96.60;;;;;;4880425;29;20329;-88
2021/01/08 07:07:02;;;;;;;13.03;7.90;;;6.20;96.70;;;;;;4896172;29;20185;-88
2021/01/08 07:09:38;;;;;;;11.57;7.03;;;6.20;96.90;;;;;;4866757;29;20265;-87
2021/01/08 07:12:09;;;;;;;9.00;6.33;;;6.20;96.70;;;;;;4947542;29;20195;-88
2021/01/08 07:14:36;;;;;;;14.73;7.87;;;6.30;96.80;;;;;;4929913;29;20206;-88
2021/01/08 07:17:05;;;;;;;9.60;6.93;;;6.30;96.90;;;;;;4936212;29;20182;-88
2021/01/08 07:19:31;;;;;;;14.33;8.27;;;6.30;96.80;;;;;;4942376;29;20199;-88
2021/01/08 07:22:00;;;;;;;13.30;8.70;;;6.30;96.60;;;;;;4928930;29;20179;-88
2021/01/08 07:24:30;;;;;;;13.07;7.73;;;6.30;96.60;;;;;;4941528;29;20183;-89
2021/01/08 07:27:14;;;;;;;14.13;8.37;;;6.40;96.70;;;;;;4941726;29;20203;-88
2021/01/08 07:29:40;;;;;;;11.47;7.80;;;6.40;96.50;;;;;;4957221;29;20179;-88
2021/01/08 07:32:06;;;;;;;15.00;8.30;;;6.50;96.70;;;;;;4937877;29;20187;-88
2021/01/08 07:34:36;;;;;;;15.93;8.63;;;6.50;96.60;;;;;;4930342;29;20203;-85
2021/01/08 07:37:02;;;;;;;18.40;8.50;;;6.60;96.30;;;;;;4927768;29;20183;-83
2021/01/08 07:39:42;;;;;;;16.00;9.57;;;6.60;96.10;;;;;;4934973;29;20210;-80
2021/01/08 07:42:32;;;;;;;13.90;9.27;;;6.60;95.90;;;;;;4929742;29;20221;-90
2021/01/08 07:44:58;;;;;;;14.77;9.03;;;6.60;96.10;;;;;;4961110;28;20274;-89
2021/01/08 07:47:25;;;;;;;12.93;8.67;;;6.70;96.40;;;;;;4925129;29;20192;-85
2021/01/08 07:50:11;;;;;;;14.73;9.77;;;6.80;96.50;;;;;;4924959;29;20681;-88
2021/01/08 07:52:39;;;;;;;20.17;10.27;;;6.90;96.30;;;;;;4952863;29;20190;-86
2021/01/08 07:55:06;;;;;;;16.97;10.70;;;6.90;96.20;;;;;;4942749;28;20192;-86
2021/01/08 07:57:57;;;;;;;15.70;9.93;;;7.00;96.10;;;;;;4959308;28;20179;-85
2021/01/08 08:00:26;;;;;;;16.10;8.83;;;7.00;95.80;;;;;;4952170;29;20191;-84
2021/01/08 08:02:55;;;;;;;17.33;10.00;;;7.10;96.00;;;;;;4939368;29;20187;-80
2021/01/08 08:05:23;;;;;;;14.43;9.27;;;7.20;95.50;;;;;;4952877;29;20269;-82
2021/01/08 08:07:52;;;;;;;15.60;9.30;;;7.20;95.60;;;;;;4934928;29;20274;-80
2021/01/08 08:10:23;;;;;;;14.50;10.27;;;7.30;95.50;;;;;;4929525;29;20190;-81
2021/01/08 08:12:51;;;;;;;16.80;9.70;;;7.40;95.50;;;;;;4950581;28;20187;-81
2021/01/08 08:15:17;;;;;;;17.47;9.87;;;7.50;95.80;;;;;;4944027;28;20180;-85
2021/01/08 08:17:47;;;;;;;17.13;10.40;;;7.50;95.50;;;;;;4947015;29;20206;-82
2021/01/08 08:20:25;;;;;;;13.97;8.87;;;7.60;95.40;;;;;;4932363;29;20190;-79
2021/01/08 08:22:54;;;;;;;18.07;8.70;;;7.80;95.10;;;;;;4929878;29;20803;-79
2021/01/08 08:25:27;;;;;;;15.90;8.53;;;7.80;95.00;;;;;;4941325;29;20183;-78
2021/01/08 08:27:54;;;;;;;13.20;8.90;;;7.90;95.00;;;;;;4952100;29;20211;-77
2021/01/08 08:30:20;;;;;;;17.47;8.17;;;7.90;95.00;;;;;;4927871;29;20187;-80
2021/01/08 08:32:48;;;;;;;10.93;8.20;;;8.00;95.00;;;;;;4951242;29;20568;-79
2021/01/08 08:35:17;;;;;;;10.53;7.57;;;8.10;94.70;;;;;;4945915;29;20275;-78
2021/01/08 08:37:50;;;;;;;14.03;9.13;;;8.10;94.40;;;;;;4951672;29;20202;-79
2021/01/08 08:40:16;;;;;;;16.60;8.33;;;8.20;94.50;;;;;;4936148;29;20187;-79
2021/01/08 08:42:42;;;;;;;10.77;7.53;;;8.30;94.50;;;;;;4931277;29;20282;-80
2021/01/08 08:45:32;;;;;;;14.23;9.00;;;8.40;94.30;;;;;;4948205;29;20183;-80
2021/01/08 08:48:04;;;;;;;17.33;7.77;;;8.50;93.90;;;;;;4935706;29;20592;-79
2021/01/08 08:50:31;;;;;;;11.20;8.30;;;8.50;93.60;;;;;;4913315;29;20333;-79
2021/01/08 08:52:57;;;;;;;10.23;7.77;;;8.50;92.80;;;;;;4929935;29;20207;-79
2021/01/08 08:55:30;;;;;;;10.37;6.70;;;8.50;92.80;;;;;;4929320;29;20687;-79
2021/01/08 08:58:03;;;;;;;9.90;6.83;;;8.40;92.70;;;;;;4920647;29;20208;-79
2021/01/08 09:00:29;;;;;;;11.63;8.10;;;8.40;92.60;;;;;;4929747;29;20179;-78
2021/01/08 09:02:55;;;;;;;11.90;8.50;;;8.40;93.00;;;;;;4913705;29;20191;-78
2021/01/08 09:05:28;;;;;;;11.03;8.10;;;8.50;93.10;;;;;;4924621;29;20372;-78
2021/01/08 09:08:04;;;;;;;7.93;6.53;;;8.50;93.00;;;;;;4924203;29;20184;-80
2021/01/08 09:10:34;;;;;;;10.27;7.80;;;8.60;92.90;;;;;;4934972;29;20202;-81
2021/01/08 09:13:17;;;;;;;10.50;6.93;;;8.60;93.00;;;;;;4915022;29;20278;-79
2021/01/08 09:16:01;;;;;;;13.03;8.50;;;8.70;92.60;;;;;;4914171;29;20199;-84
2021/01/08 09:18:57;;;;;;;13.47;7.50;;;8.70;92.10;;;;;;4927286;29;20282;-80
2021/01/08 09:21:33;;;;;;;10.53;7.50;;;8.60;92.00;;;;;;4913978;29;20195;-81
2021/01/08 09:24:00;;;;;;;8.93;7.77;;;8.60;92.30;;;;;;4934179;28;20187;-79
2021/01/08 09:26:29;;;;;;;10.93;7.33;;;8.60;91.90;;;;;;4967689;28;20287;-78
2021/01/08 09:28:55;;;;;;;14.40;8.30;;;8.60;92.20;;;;;;4961492;28;20226;-79
2021/01/08 09:31:44;;;;;;;10.87;8.07;;;8.70;92.50;;;;;;4961562;28;20206;-77
2021/01/08 09:34:17;;;;;;;13.73;8.30;;;8.80;92.50;;;;;;4967817;28;20230;-77
2021/01/08 09:36:47;;;;;;;11.90;8.13;;;8.90;92.40;;;;;;4968984;28;20322;-77
2021/01/08 09:39:13;;;;;;;13.20;8.57;;;9.00;92.30;;;;;;4963496;28;20205;-77
2021/01/08 09:41:40;;;;;;;9.87;8.47;;;9.10;92.00;;;;;;4953043;28;20190;-77
2021/01/08 09:44:08;;;;;;;13.30;8.63;;;9.10;91.60;;;;;;4950208;28;20339;-77
2021/01/08 09:46:54;;;;;;;13.97;8.47;;;9.20;91.60;;;;;;4969455;28;20670;-77
2021/01/08 09:49:20;;;;;;;12.77;9.43;;;9.30;91.50;;;;;;4974874;28;20174;-77
2021/01/08 09:51:46;;;;;;;14.83;10.07;;;9.30;91.80;;;;;;4967486;28;20197;-77
2021/01/08 09:54:11;;;;;;;13.90;9.10;;;9.30;91.60;;;;;;4968102;28;20209;-77
2021/01/08 09:56:37;;;;;;;11.60;8.20;;;9.30;91.70;;;;;;4967486;28;20186;-77
2021/01/08 09:59:15;;;;;;;13.77;8.50;;;9.40;91.80;;;;;;4964710;28;20244;-77
2021/01/08 10:04:45;;;;;;;13.83;10.30;;;9.50;91.30;;;;;;4968283;28;20175;-78
2021/01/08 10:07:11;;;;;;;11.63;8.52;;;9.40;91.10;;;;;;4950484;28;20205;-78
2021/01/08 10:09:51;;;;;;;16.43;9.67;;;9.50;91.70;;;;;;4959664;28;20584;-77
2021/01/08 10:12:21;;;;;;;12.67;9.67;;;9.50;91.10;;;;;;4969798;28;20183;-78
2021/01/08 10:14:48;;;;;;;16.02;9.70;;;9.50;91.60;;;;;;4968866;28;20194;-78
2021/01/08 10:17:17;;;;;;;19.92;10.38;;;9.50;91.70;;;;;;4965430;28;20182;-79
2021/01/08 10:19:46;;;;;;;15.73;10.63;;;9.50;91.50;;;;;;4949758;28;20731;-79
2021/01/08 10:22:11;;;;;;;14.13;10.27;;;9.40;91.50;;;;;;4967947;28;20651;-77
2021/01/08 10:24:37;;;;;;;16.05;11.38;;;9.40;91.80;;;;;;4956381;28;20202;-80
2021/01/08 10:27:04;;;;;;;19.98;11.00;;;9.40;91.80;;;;;;4951593;28;20186;-78
2021/01/08 10:29:38;;;;;;;15.13;10.88;;;9.40;91.90;;;;;;4969039;28;20223;-79
2021/01/08 10:32:08;;;;;;;13.07;9.70;;;9.40;92.00;;;;;;4962058;28;20211;-78
2021/01/08 10:34:42;;;;;;;13.73;9.70;;;9.40;92.30;;;;;;4963248;28;20594;-79
2021/01/08 10:37:18;;;;;;;13.65;9.27;;;9.40;92.10;;;;;;4949871;28;20322;-79
2021/01/08 10:39:45;;;;;;;13.60;9.18;;;9.40;92.10;;;;;;4970820;28;20194;-79
2021/01/08 10:42:11;;;;;;;14.10;9.20;;;9.50;92.60;;;;;;4972590;28;20664;-79
2021/01/08 10:44:37;;;;;;;13.60;8.30;;;9.50;92.60;;;;;;4969297;28;20202;-80
2021/01/08 10:47:04;;;;;;;11.97;8.77;;;9.50;92.30;;;;;;4967992;28;20205;-79
2021/01/08 10:49:30;;;;;;;11.23;8.13;;;9.50;92.10;;;;;;4969682;28;20234;-78
2021/01/08 10:51:55;;;;;;;14.87;8.43;;;9.50;92.30;;;;;;4972268;28;20190;-79
2021/01/08 10:54:21;;;;;;;10.02;7.88;;;9.60;92.50;;;;;;4970682;28;20285;-79
2021/01/08 10:56:47;;;;;;;14.25;7.57;;;9.70;92.50;;;;;;4956221;28;20221;-77
2021/01/08 10:59:31;;;;;;;9.95;7.47;;;9.80;92.60;;;;;;4970617;28;20194;-81
2021/01/08 11:01:57;;;;;;;7.73;6.43;;;9.90;92.20;;;;;;4961176;28;20626;-77
2021/01/08 11:04:23;;;;;;;12.05;6.07;;;10.00;91.80;;;;;;4972472;28;20187;-79
2021/01/08 11:06:55;;;;;;;6.10;5.32;;;10.00;91.60;;;;;;4971514;28;20260;-82
2021/01/08 11:09:21;;;;;;;5.43;4.95;;;10.10;91.50;;;;;;4954610;28;20187;-79
2021/01/08 11:11:47;;;;;;;7.00;4.93;;;10.10;91.40;;;;;;4969692;28;20190;-79
2021/01/08 11:14:12;;;;;;;4.68;4.28;;;10.20;91.60;;;;;;4969435;28;20285;-80
2021/01/08 11:16:38;;;;;;;5.00;4.53;;;10.30;91.70;;;;;;4971929;28;20182;-87
2021/01/08 11:19:04;;;;;;;4.18;3.83;;;10.50;90.90;;;;;;4955754;28;20213;-83
2021/01/08 11:21:29;;;;;;;4.55;4.28;;;10.60;90.60;;;;;;4971171;28;20801;-82
2021/01/08 11:23:55;;;;;;;7.40;4.93;;;10.70;90.50;;;;;;4972694;28;20186;-89
2021/01/08 11:26:28;;;;;;;6.07;4.93;;;10.80;90.20;;;;;;4971123;28;20183;-81
2021/01/08 11:28:54;;;;;;;6.78;5.07;;;10.90;89.90;;;;;;4954528;28;20198;-78
2021/01/08 11:31:20;;;;;;;7.80;5.97;;;11.00;90.00;;;;;;4941963;29;21003;-79
2021/01/08 11:33:46;;;;;;;10.25;6.82;;;11.00;89.50;;;;;;4952885;29;20227;-77
2021/01/08 11:36:12;;;;;;;11.02;6.93;;;11.00;89.40;;;;;;4953050;29;20190;-78
2021/01/08 11:38:39;;;;;;;15.25;7.43;;;11.10;89.40;;;;;;4954656;28;20170;-77
2021/01/08 11:41:05;;;;;;;12.30;8.88;;;11.10;89.40;;;;;;4955665;28;20640;-75
2021/01/08 11:43:30;;;;;;;15.95;10.45;;;11.10;89.10;;;;;;4972181;28;20190;-79
2021/01/08 11:45:56;;;;;;;21.88;11.57;;;11.10;88.00;;;;;;4972320;28;20697;-80
2021/01/08 11:48:22;;;;;;;15.68;10.70;;;11.00;88.50;;;;;;4971765;28;20190;-79
2021/01/08 11:50:47;;;;;;;25.67;11.70;;;10.90;88.00;;;;;;4971018;28;20189;-78
2021/01/08 11:53:13;;;;;;;19.10;11.95;;;10.70;88.30;;;;;;4972032;28;20687;-80
2021/01/08 11:55:39;;;;;;;18.02;10.70;;;10.70;88.70;;;;;;4966204;28;20226;-80
2021/01/08 11:58:04;;;;;;;16.10;10.20;;;10.50;88.60;;;;;;4953152;29;20170;-79
2021/01/08 12:00:30;;;;;;;15.68;10.20;;;10.40;88.60;;;;;;4952773;29;20274;-80
2021/01/08 12:02:56;;;;;;;13.25;9.88;;;10.40;88.90;;;;;;4952598;29;20175;-80
2021/01/08 12:05:21;;;;;;;12.38;9.77;;;10.30;89.30;;;;;;4951393;29;20186;-80
2021/01/08 12:07:47;;;;;;;10.40;7.95;;;10.30;89.40;;;;;;4951394;29;20175;-80
2021/01/08 12:10:13;;;;;;;11.07;8.38;;;10.30;89.20;;;;;;4961315;28;20262;-78
2021/01/08 12:12:39;;;;;;;12.75;8.80;;;10.30;89.30;;;;;;4971124;28;20264;-78
2021/01/08 12:15:06;;;;;;;12.25;8.50;;;10.30;89.60;;;;;;4969608;28;20201;-77
2021/01/08 12:17:32;;;;;;;9.02;7.38;;;10.40;89.90;;;;;;4964386;28;20179;-78
2021/01/08 12:19:57;;;;;;;10.95;8.50;;;10.30;89.10;;;;;;4957739;28;20308;-77
2021/01/08 12:22:23;;;;;;;10.60;8.55;;;10.30;89.30;;;;;;4965107;28;20213;-77
2021/01/08 12:24:49;;;;;;;10.05;7.78;;;10.30;89.40;;;;;;4966163;28;20182;-76
2021/01/08 12:27:16;;;;;;;13.98;8.00;;;10.30;89.30;;;;;;4949686;28;20190;-75
2021/01/08 12:29:42;;;;;;;12.70;8.27;;;10.20;89.40;;;;;;4968409;28;20261;-79
2021/01/08 12:32:08;;;;;;;9.35;7.10;;;10.30;89.50;;;;;;4970190;28;20194;-76
2021/01/08 12:34:34;;;;;;;11.00;8.52;;;10.30;89.30;;;;;;4958593;28;20293;-77
2021/01/08 12:37:00;;;;;;;11.55;7.85;;;10.20;89.60;;;;;;4955753;28;20683;-79
2021/01/08 12:42:10;;;;;;;12.75;7.82;;;10.40;89.90;;;;;;4970715;28;20616;-79
2021/01/08 12:44:35;;;;;;;12.18;7.45;;;10.50;90.10;;;;;;4971283;28;20257;-78
2021/01/08 12:47:04;;;;;;;11.45;7.03;;;10.60;90.00;;;;;;4953704;28;20200;-78
2021/01/08 12:49:30;;;;;;;10.70;7.90;;;10.70;88.90;;;;;;4970837;28;20174;-78
2021/01/08 12:51:56;;;;;;;16.85;7.78;;;10.80;88.70;;;;;;4965940;28;20202;-82
2021/01/08 12:54:21;;;;;;;10.35;7.93;;;10.90;88.80;;;;;;4953654;28;20210;-77
2021/01/08 12:56:47;;;;;;;11.73;8.75;;;11.00;88.10;;;;;;4970586;28;20174;-81
2021/01/08 12:59:13;;;;;;;10.90;7.60;;;11.00;88.00;;;;;;4953746;28;20185;-87